Time;durP1;ratioP1;P1;durP2;ratioP2;P2;SDS_P1;SDS_P2;PMS_P1;PMS_P2;Temp;Humidity;BMP_temperature;BMP_pressure;BME280_temperature;BME280_humidity;BME280_pressure;Samples;Min_cycle;Max_cycle;Signal;HPM_P1;HPM_P2
2022/09/14 00:01:07;;;;;;;20.10;6.53;;;;;;;17.99;84.89;95545.47;5071647;28;20052;-74
2022/09/14 00:03:34;;;;;;;17.65;7.03;;;;;;;17.96;84.96;95541.53;5072173;28;20051;-76
2022/09/14 00:06:03;;;;;;;17.38;7.05;;;;;;;17.93;84.82;95547.00;5073055;28;20051;-74
2022/09/14 00:08:30;;;;;;;19.13;6.40;;;;;;;17.95;84.86;95534.41;5072720;28;20067;-75
2022/09/14 00:10:56;;;;;;;18.00;7.18;;;;;;;17.87;84.96;95538.31;5073326;28;20047;-74
2022/09/14 00:13:24;;;;;;;20.08;7.00;;;;;;;17.88;84.89;95534.38;5072534;28;20052;-75
2022/09/14 00:15:50;;;;;;;16.30;7.22;;;;;;;17.87;84.88;95532.81;5072978;28;20048;-74
2022/09/14 00:18:17;;;;;;;17.42;6.53;;;;;;;17.93;84.71;95536.00;5068028;28;20052;-75
2022/09/14 00:20:43;;;;;;;16.58;6.13;;;;;;;17.95;84.79;95533.63;5072931;28;20044;-74
2022/09/14 00:23:10;;;;;;;19.80;8.18;;;;;;;17.89;84.84;95533.22;5071921;28;20044;-74
2022/09/14 00:25:36;;;;;;;19.02;6.90;;;;;;;17.97;84.66;95517.53;5062680;28;20044;-75
2022/09/14 00:28:03;;;;;;;18.20;6.95;;;;;;;17.98;84.71;95525.38;5072578;28;20043;-76
2022/09/14 00:30:31;;;;;;;16.92;7.68;;;;;;;17.95;84.66;95528.91;5072539;28;20044;-75
2022/09/14 00:32:58;;;;;;;17.73;7.57;;;;;;;17.92;84.77;95524.19;5072472;28;20049;-74
2022/09/14 00:35:24;;;;;;;16.88;8.15;;;;;;;17.89;85.08;95524.94;5072027;28;20051;-75
2022/09/14 00:37:51;;;;;;;19.23;7.32;;;;;;;17.99;84.79;95529.72;5072518;28;20051;-74
2022/09/14 00:40:18;;;;;;;15.35;7.82;;;;;;;17.94;84.89;95541.09;5072312;28;20044;-74
2022/09/14 00:42:44;;;;;;;16.90;7.53;;;;;;;17.99;84.60;95537.97;5072513;28;20037;-74
2022/09/14 00:45:20;;;;;;;14.68;6.53;;;;;;;17.99;84.82;95543.50;5072077;28;20044;-74
2022/09/14 00:47:50;;;;;;;14.45;7.22;;;;;;;18.03;85.07;95532.50;5072469;28;20051;-75
2022/09/14 00:50:17;;;;;;;14.40;6.63;;;;;;;18.06;85.19;95533.69;5071896;28;20044;-75
2022/09/14 00:52:47;;;;;;;13.70;6.75;;;;;;;18.03;85.23;95531.72;5072386;28;20048;-74
2022/09/14 00:55:17;;;;;;;22.38;7.97;;;;;;;18.00;84.25;95534.03;5069955;28;20110;-75
2022/09/14 00:57:46;;;;;;;19.73;7.32;;;;;;;17.95;83.92;95537.16;5072175;28;20043;-75
2022/09/14 01:00:16;;;;;;;15.98;6.82;;;;;;;17.99;83.79;95548.22;5071460;28;20432;-77
2022/09/14 01:02:43;;;;;;;19.15;7.38;;;;;;;17.97;84.03;95539.56;5071984;28;20040;-74
2022/09/14 01:05:13;;;;;;;19.55;6.07;;;;;;;17.99;84.86;95540.75;5071690;28;20048;-74
2022/09/14 01:07:49;;;;;;;12.90;5.85;;;;;;;18.02;84.98;95538.41;5071978;28;20064;-73
2022/09/14 01:10:31;;;;;;;20.83;6.57;;;;;;;17.99;84.42;95526.97;5071462;28;20053;-76
2022/09/14 01:13:08;;;;;;;12.73;5.80;;;;;;;17.99;84.45;95526.97;5071839;28;20056;-76
2022/09/14 01:15:44;;;;;;;16.88;6.70;;;;;;;17.95;84.33;95531.66;5071827;28;20040;-76
2022/09/14 01:18:16;;;;;;;17.65;7.03;;;;;;;17.93;83.99;95531.25;5071521;28;20052;-76
2022/09/14 01:20:51;;;;;;;15.73;6.05;;;;;;;17.91;84.76;95528.13;5071656;28;20041;-75
2022/09/14 01:23:26;;;;;;;14.98;6.30;;;;;;;17.87;85.38;95497.00;5071598;28;20053;-75
2022/09/14 01:26:10;;;;;;;20.83;7.22;;;;;;;17.92;85.47;95480.13;5071014;28;20052;-76
2022/09/14 01:28:42;;;;;;;17.55;7.50;;;;;;;17.88;85.75;95471.03;5071631;28;20044;-76
2022/09/14 01:31:14;;;;;;;15.23;6.80;;;;;;;17.82;85.91;95491.88;5071114;28;20059;-76
2022/09/14 01:33:48;;;;;;;24.38;8.27;;;;;;;17.75;86.30;95483.56;5071436;28;20488;-76
2022/09/14 01:36:15;;;;;;;17.40;6.40;;;;;;;17.77;86.73;95466.66;5071236;28;20051;-76
2022/09/14 01:38:47;;;;;;;16.73;6.28;;;;;;;17.79;87.08;95459.59;5071169;28;20047;-76
2022/09/14 01:41:17;;;;;;;24.98;7.82;;;;;;;17.72;87.25;95465.03;5070890;28;20056;-76
2022/09/14 01:43:48;;;;;;;13.80;5.70;;;;;;;17.70;87.12;95459.13;5071216;28;20045;-76
2022/09/14 01:46:17;;;;;;;19.77;6.80;;;;;;;17.65;87.35;95448.50;5070685;28;20049;-77
2022/09/14 01:48:49;;;;;;;20.55;6.63;;;;;;;17.63;87.29;95456.31;5071070;28;20120;-76
2022/09/14 01:51:22;;;;;;;18.65;6.25;;;;;;;17.64;87.11;95452.41;5070932;28;20131;-75
2022/09/14 01:53:55;;;;;;;17.52;5.93;;;;;;;17.61;87.13;95464.19;5071030;28;20040;-75
2022/09/14 01:56:24;;;;;;;18.20;5.82;;;;;;;17.67;86.37;95473.66;5062669;28;20059;-75
2022/09/14 01:58:59;;;;;;;16.40;5.45;;;;;;;17.69;85.76;95482.31;5071049;28;20504;-74
2022/09/14 02:01:33;;;;;;;12.80;4.32;;;;;;;17.67;86.07;95479.94;5069158;28;20044;-75
2022/09/14 02:04:04;;;;;;;13.82;5.07;;;;;;;17.71;86.61;95480.78;5070998;28;20064;-75
2022/09/14 02:06:35;;;;;;;12.30;4.78;;;;;;;17.70;86.53;95478.41;5070605;28;20064;-75
2022/09/14 02:09:04;;;;;;;20.20;5.82;;;;;;;17.56;86.87;95472.81;5070356;28;20048;-74
2022/09/14 02:11:30;;;;;;;13.85;4.80;;;;;;;17.39;87.75;95464.06;5070656;28;20044;-75
2022/09/14 02:13:58;;;;;;;15.95;5.45;;;;;;;17.55;87.11;95462.97;5070566;28;20052;-74
2022/09/14 02:16:25;;;;;;;16.13;5.63;;;;;;;17.56;87.14;95456.28;5070003;28;20542;-75
2022/09/14 02:18:52;;;;;;;15.48;5.03;;;;;;;17.61;87.01;95453.97;5071014;28;20094;-75
2022/09/14 02:21:23;;;;;;;17.77;4.90;;;;;;;17.62;86.88;95455.53;5070212;28;20415;-74
2022/09/14 02:23:50;;;;;;;12.52;4.38;;;;;;;17.60;86.87;95446.88;5070441;28;20049;-75
2022/09/14 02:26:18;;;;;;;14.35;5.28;;;;;;;17.61;86.66;95439.41;5067482;28;20072;-76
2022/09/14 02:28:45;;;;;;;20.42;4.72;;;;;;;17.65;86.60;95442.97;5067279;28;20495;-75
2022/09/14 02:31:26;;;;;;;20.90;5.80;;;;;;;17.66;86.71;95444.56;5069920;28;20102;-75
2022/09/14 02:34:03;;;;;;;18.42;5.18;;;;;;;17.60;86.12;95440.59;5070598;28;20049;-75
2022/09/14 02:36:41;;;;;;;16.38;5.03;;;;;;;17.58;86.13;95431.91;5070334;28;20492;-75
2022/09/14 02:39:17;;;;;;;14.25;4.80;;;;;;;17.46;86.45;95435.78;5069562;28;20088;-75
2022/09/14 02:41:50;;;;;;;13.80;4.57;;;;;;;17.53;86.23;95426.78;5070142;28;20075;-75
2022/09/14 02:44:21;;;;;;;35.13;7.57;;;;;;;17.55;86.18;95428.00;5069619;28;20051;-75
2022/09/14 02:46:58;;;;;;;12.63;4.18;;;;;;;17.60;86.23;95424.06;5070180;28;20032;-75
2022/09/14 02:49:30;;;;;;;10.95;4.22;;;;;;;17.59;86.13;95428.81;5070002;28;20665;-75
2022/09/14 02:52:02;;;;;;;12.05;4.38;;;;;;;17.64;85.73;95424.88;5070075;28;20049;-75
2022/09/14 02:54:35;;;;;;;16.93;4.70;;;;;;;17.62;84.69;95427.22;5069398;28;20051;-75
2022/09/14 02:57:01;;;;;;;18.65;4.93;;;;;;;17.63;84.75;95423.28;5067969;28;20286;-75
2022/09/14 02:59:29;;;;;;;12.23;4.10;;;;;;;17.62;85.30;95428.00;5069231;28;20047;-74
2022/09/14 03:01:58;;;;;;;19.75;5.32;;;;;;;17.58;85.60;95420.91;5069847;28;20055;-75
2022/09/14 03:04:25;;;;;;;13.85;4.22;;;;;;;17.50;85.94;95406.34;5068756;28;20045;-74
2022/09/14 03:06:51;;;;;;;17.88;4.85;;;;;;;17.48;86.22;95409.44;5069935;28;20048;-74
2022/09/14 03:09:18;;;;;;;11.18;4.03;;;;;;;17.55;85.84;95422.47;5069737;28;20052;-75
2022/09/14 03:11:44;;;;;;;19.00;5.30;;;;;;;17.54;85.85;95414.59;5069894;28;20407;-75
2022/09/14 03:14:11;;;;;;;13.05;4.20;;;;;;;17.50;85.93;95405.53;5069647;28;20040;-74
2022/09/14 03:16:38;;;;;;;19.50;4.88;;;;;;;17.46;86.39;95397.25;5070230;28;20048;-75
2022/09/14 03:19:06;;;;;;;15.40;4.75;;;;;;;17.42;86.36;95391.72;5073593;28;20044;-74
2022/09/14 03:21:33;;;;;;;11.80;3.70;;;;;;;17.47;86.36;95387.81;5073908;28;20519;-74
2022/09/14 03:24:00;;;;;;;17.20;4.70;;;;;;;17.45;86.54;95388.22;5073885;28;20056;-74
2022/09/14 03:26:27;;;;;;;16.00;4.72;;;;;;;17.45;86.39;95377.22;5070963;28;20752;-75
2022/09/14 03:28:55;;;;;;;16.13;4.60;;;;;;;17.46;86.40;95380.75;5073661;28;20546;-76
2022/09/14 03:31:22;;;;;;;16.42;4.30;;;;;;;17.53;85.63;95380.78;5073495;28;20498;-75
2022/09/14 03:33:52;;;;;;;14.70;4.25;;;;;;;17.50;86.18;95381.56;5073745;28;20063;-74
2022/09/14 03:36:20;;;;;;;14.48;4.28;;;;;;;17.52;86.19;95392.19;5073349;28;20098;-75
2022/09/14 03:38:49;;;;;;;14.55;3.95;;;;;;;17.57;86.27;95386.31;5073379;28;20617;-74
2022/09/14 03:41:16;;;;;;;14.05;4.05;;;;;;;17.58;85.34;95385.13;5073200;28;20040;-75
2022/09/14 03:43:43;;;;;;;17.05;4.43;;;;;;;17.52;85.70;95375.66;5073455;28;20411;-75
2022/09/14 03:46:12;;;;;;;10.68;3.88;;;;;;;17.52;85.75;95373.69;5073123;28;20044;-75
2022/09/14 03:48:39;;;;;;;14.88;4.00;;;;;;;17.48;85.81;95372.88;5073606;28;20051;-75
2022/09/14 03:51:07;;;;;;;13.60;4.40;;;;;;;17.45;85.69;95368.94;5072960;28;20059;-75
2022/09/14 03:53:35;;;;;;;13.13;4.07;;;;;;;17.50;85.42;95364.25;5073329;28;20044;-74
2022/09/14 03:56:06;;;;;;;14.55;3.65;;;;;;;17.43;85.38;95354.00;5072137;28;20064;-74
2022/09/14 03:58:33;;;;;;;14.70;3.58;;;;;;;17.40;85.08;95350.06;5073236;28;20051;-74
2022/09/14 04:01:04;;;;;;;12.48;3.15;;;;;;;17.37;84.60;95356.31;5073367;28;20048;-74
2022/09/14 04:03:31;;;;;;;10.60;3.25;;;;;;;17.45;84.21;95351.66;5073024;28;20037;-74
2022/09/14 04:05:58;;;;;;;11.73;3.67;;;;;;;17.36;84.50;95353.97;5073024;28;20622;-75
2022/09/14 04:08:25;;;;;;;12.48;3.55;;;;;;;17.41;83.95;95351.63;5072793;28;20040;-74
2022/09/14 04:10:53;;;;;;;14.80;3.83;;;;;;;17.43;83.88;95354.78;5073267;28;20516;-75
2022/09/14 04:13:20;;;;;;;18.15;4.10;;;;;;;17.25;84.76;95342.91;5072561;28;20045;-75
2022/09/14 04:15:56;;;;;;;11.52;3.08;;;;;;;17.29;84.02;95357.47;5072934;28;20041;-75
2022/09/14 04:18:23;;;;;;;12.23;3.72;;;;;;;17.27;84.05;95367.28;5072556;28;20098;-75
2022/09/14 04:20:54;;;;;;;17.48;3.40;;;;;;;17.44;83.83;95361.88;5072830;28;20044;-75
2022/09/14 04:23:21;;;;;;;19.08;3.60;;;;;;;17.52;83.22;95378.41;5071063;28;20503;-74
2022/09/14 04:25:48;;;;;;;11.00;2.95;;;;;;;17.59;82.85;95373.75;5073013;28;20083;-75
2022/09/14 04:28:16;;;;;;;16.90;3.03;;;;;;;17.60;82.39;95382.78;5072276;28;20048;-75
2022/09/14 04:30:42;;;;;;;14.88;3.45;;;;;;;17.62;81.66;95386.72;5072888;28;20041;-75
2022/09/14 04:33:09;;;;;;;18.75;4.00;;;;;;;17.51;82.12;95409.88;5072002;28;20044;-75
2022/09/14 04:35:36;;;;;;;14.95;3.20;;;;;;;17.51;81.62;95415.38;5072884;28;20041;-75
2022/09/14 04:38:03;;;;;;;14.73;3.28;;;;;;;17.63;81.98;95423.28;5072150;28;20053;-74
2022/09/14 04:40:29;;;;;;;12.63;3.25;;;;;;;17.59;82.68;95431.56;5072811;28;20044;-75
2022/09/14 04:42:56;;;;;;;11.73;3.17;;;;;;;17.48;85.20;95428.72;5072662;28;20094;-74
2022/09/14 04:45:25;;;;;;;10.18;2.90;;;;;;;17.61;85.09;95433.91;5071949;28;20041;-74
2022/09/14 04:47:53;;;;;;;12.88;3.65;;;;;;;17.62;85.30;95436.28;5072522;28;20536;-74
2022/09/14 04:50:19;;;;;;;17.85;3.90;;;;;;;17.46;86.69;95420.06;5072055;28;20041;-74
2022/09/14 04:52:46;;;;;;;15.50;4.00;;;;;;;17.57;86.31;95419.34;5072366;28;20543;-74
2022/09/14 04:55:12;;;;;;;14.40;4.05;;;;;;;17.53;86.60;95410.25;5071449;28;20052;-74
2022/09/14 04:57:38;;;;;;;12.00;3.50;;;;;;;17.48;87.59;95405.91;5072156;28;20049;-74
2022/09/14 05:00:06;;;;;;;14.82;4.25;;;;;;;17.53;88.05;95408.28;5072016;28;20040;-74
2022/09/14 05:02:34;;;;;;;12.98;4.13;;;;;;;17.57;87.80;95408.31;5072123;28;20071;-75
2022/09/14 05:05:00;;;;;;;17.08;4.45;;;;;;;17.53;88.13;95396.50;5072253;28;20118;-74
2022/09/14 05:07:27;;;;;;;11.68;3.55;;;;;;;17.55;88.32;95388.66;5072000;28;20411;-74
2022/09/14 05:09:54;;;;;;;14.07;4.05;;;;;;;17.53;88.49;95388.25;5072290;28;20211;-75
2022/09/14 05:12:20;;;;;;;15.18;3.72;;;;;;;17.49;89.28;95391.00;5071660;28;20056;-75
2022/09/14 05:14:47;;;;;;;14.25;3.95;;;;;;;17.57;88.82;95391.81;5072065;28;20048;-75
2022/09/14 05:17:13;;;;;;;13.10;4.10;;;;;;;17.56;88.91;95393.00;5071602;28;20411;-74
2022/09/14 05:19:41;;;;;;;10.13;3.17;;;;;;;17.54;88.92;95385.13;5071927;28;20051;-74
2022/09/14 05:22:08;;;;;;;10.02;3.63;;;;;;;17.53;88.85;95385.50;5071384;28;20048;-74
2022/09/14 05:24:34;;;;;;;11.65;3.67;;;;;;;17.55;88.92;95372.16;5071507;28;20045;-75
2022/09/14 05:27:00;;;;;;;15.57;4.13;;;;;;;17.53;89.20;95377.22;5071707;28;20055;-75
2022/09/14 05:29:28;;;;;;;13.68;3.95;;;;;;;17.56;88.88;95384.72;5071422;28;20139;-75
2022/09/14 05:31:55;;;;;;;16.05;3.83;;;;;;;17.60;88.62;95399.31;5071728;28;20048;-74
2022/09/14 05:34:22;;;;;;;17.30;4.03;;;;;;;17.61;88.62;95387.13;5071166;28;20056;-74
2022/09/14 05:36:50;;;;;;;14.30;3.60;;;;;;;17.66;88.26;95386.75;5071589;28;20040;-75
2022/09/14 05:39:16;;;;;;;14.02;3.38;;;;;;;17.68;87.74;95376.91;5070525;28;20045;-74
2022/09/14 05:41:43;;;;;;;11.98;3.05;;;;;;;17.69;87.83;95378.47;5071288;28;20049;-74
2022/09/14 05:44:09;;;;;;;17.17;3.42;;;;;;;17.63;86.79;95370.97;5071105;28;20549;-75
2022/09/14 05:46:36;;;;;;;13.27;3.40;;;;;;;17.64;86.88;95381.59;5071186;28;20041;-75
2022/09/14 05:49:03;;;;;;;17.92;3.88;;;;;;;17.69;86.74;95377.69;5070852;28;20508;-74
2022/09/14 05:51:29;;;;;;;19.25;3.88;;;;;;;17.56;87.05;95381.97;5071260;28;20068;-75
2022/09/14 05:53:58;;;;;;;16.35;3.72;;;;;;;17.53;87.55;95368.97;5070845;28;20044;-75
2022/09/14 05:56:27;;;;;;;13.88;3.67;;;;;;;17.59;87.99;95357.22;5070313;28;20519;-74
2022/09/14 05:58:54;;;;;;;14.40;3.55;;;;;;;17.57;87.54;95358.78;5071294;28;20048;-74
2022/09/14 06:01:22;;;;;;;15.07;3.80;;;;;;;17.63;87.10;95362.72;5070776;28;20098;-74
2022/09/14 06:03:50;;;;;;;14.07;3.55;;;;;;;17.61;87.04;95354.06;5070529;28;20545;-74
2022/09/14 06:06:19;;;;;;;15.57;4.32;;;;;;;17.59;87.80;95350.91;5070639;28;20055;-75
2022/09/14 06:08:48;;;;;;;17.83;3.85;;;;;;;17.61;88.14;95343.06;5070784;28;20049;-74
2022/09/14 06:11:18;;;;;;;15.50;3.63;;;;;;;17.72;87.77;95343.88;5070575;28;20060;-75
2022/09/14 06:13:45;;;;;;;17.23;3.63;;;;;;;17.64;87.93;95334.00;5070730;28;20048;-75
2022/09/14 06:16:14;;;;;;;10.23;2.83;;;;;;;17.67;88.11;95320.28;5070463;28;20044;-75
2022/09/14 06:18:42;;;;;;;29.58;5.43;;;;;;;17.71;87.82;95337.59;5068241;28;20040;-75
2022/09/14 06:21:11;;;;;;;16.55;3.83;;;;;;;17.81;86.82;95347.09;5068702;28;20075;-77
2022/09/14 06:23:37;;;;;;;13.13;3.35;;;;;;;17.80;86.85;95348.28;5070492;28;20040;-75
2022/09/14 06:26:05;;;;;;;17.40;3.90;;;;;;;17.82;86.79;95348.66;5070246;28;20056;-74
2022/09/14 06:28:34;;;;;;;24.15;4.93;;;;;;;17.82;87.07;95358.91;5070521;28;20044;-77
2022/09/14 06:31:03;;;;;;;18.13;3.72;;;;;;;17.84;87.00;95357.31;5070477;28;20053;-77
2022/09/14 06:33:30;;;;;;;12.45;3.47;;;;;;;17.88;87.28;95360.09;5070184;28;20383;-77
2022/09/14 06:35:58;;;;;;;11.23;3.45;;;;;;;17.91;87.11;95362.09;5070534;28;20048;-76
2022/09/14 06:38:25;;;;;;;24.75;4.25;;;;;;;17.95;87.48;95363.63;5069963;28;20044;-77
2022/09/14 06:40:52;;;;;;;15.60;3.65;;;;;;;17.98;87.71;95368.38;5070453;28;20403;-77
2022/09/14 06:43:20;;;;;;;21.42;4.22;;;;;;;18.04;88.16;95365.25;5065288;28;20041;-74
2022/09/14 06:45:59;;;;;;;16.98;3.60;;;;;;;18.09;88.38;95362.13;5069572;28;20063;-76
2022/09/14 06:48:26;;;;;;;10.85;3.08;;;;;;;18.14;88.81;95367.25;5069750;28;20048;-76
2022/09/14 06:50:53;;;;;;;11.15;3.28;;;;;;;18.20;88.41;95369.22;5070087;28;20534;-77
2022/09/14 06:53:20;;;;;;;12.10;3.33;;;;;;;18.25;88.78;95365.28;5068891;28;20051;-78
2022/09/14 06:55:46;;;;;;;13.77;3.47;;;;;;;18.30;88.56;95366.88;5069920;28;20052;-76
2022/09/14 06:58:13;;;;;;;10.43;3.22;;;;;;;18.38;88.00;95366.50;5069809;28;20044;-77
2022/09/14 07:00:40;;;;;;;12.23;3.40;;;;;;;18.31;87.38;95363.72;5070225;28;20041;-78
2022/09/14 07:03:08;;;;;;;14.35;3.50;;;;;;;18.51;86.96;95367.69;5069332;28;20041;-77
2022/09/14 07:05:34;;;;;;;13.60;3.47;;;;;;;18.60;85.70;95359.03;5070053;28;20051;-78
2022/09/14 07:08:01;;;;;;;16.38;3.97;;;;;;;18.71;85.56;95348.03;5069837;28;20051;-79
2022/09/14 07:10:28;;;;;;;16.58;3.88;;;;;;;18.72;84.08;95344.84;5070267;28;20399;-81
2022/09/14 07:12:54;;;;;;;26.23;5.10;;;;;;;18.90;84.24;95342.09;5070198;28;20499;-80
2022/09/14 07:15:21;;;;;;;17.90;4.13;;;;;;;18.98;84.14;95346.41;5069665;28;20197;-78
2022/09/14 07:17:47;;;;;;;26.38;4.60;;;;;;;19.00;82.79;95344.06;5069586;28;20059;-77
2022/09/14 07:20:16;;;;;;;18.10;3.85;;;;;;;19.08;82.45;95349.56;5069028;28;20045;-76
2022/09/14 07:22:42;;;;;;;15.90;2.92;;;;;;;19.19;82.53;95348.34;5069584;28;20037;-80
2022/09/14 07:25:10;;;;;;;13.68;3.65;;;;;;;19.31;82.65;95347.13;5069552;28;20045;-78
2022/09/14 07:27:37;;;;;;;15.40;3.70;;;;;;;19.44;81.72;95355.75;5069566;28;20063;-77
2022/09/14 07:30:05;;;;;;;13.52;3.30;;;;;;;19.46;81.78;95356.94;5069436;28;20055;-75
2022/09/14 07:32:31;;;;;;;27.02;5.05;;;;;;;19.52;81.37;95362.81;5069383;28;20036;-77
2022/09/14 07:34:57;;;;;;;14.25;3.50;;;;;;;19.66;81.07;95367.53;5069476;28;20044;-79
2022/09/14 07:37:25;;;;;;;11.38;2.72;;;;;;;19.64;81.10;95369.94;5069236;28;20044;-76
2022/09/14 07:39:52;;;;;;;16.27;3.65;;;;;;;19.54;81.34;95361.25;5069881;28;20506;-76
2022/09/14 07:42:18;;;;;;;14.32;3.60;;;;;;;19.61;81.29;95351.38;5069098;28;20408;-78
2022/09/14 07:44:45;;;;;;;12.05;3.33;;;;;;;19.72;81.15;95363.19;5069688;28;20052;-77
2022/09/14 07:47:11;;;;;;;14.55;3.88;;;;;;;19.76;80.78;95356.44;5069130;28;20048;-79
2022/09/14 07:49:37;;;;;;;18.33;3.80;;;;;;;19.84;80.66;95357.22;5069252;28;20044;-79
2022/09/14 07:52:04;;;;;;;18.73;3.80;;;;;;;19.83;80.25;95360.38;5069260;28;20045;-78
2022/09/14 07:54:34;;;;;;;14.05;3.05;;;;;;;19.96;79.42;95365.03;5069307;28;20044;-77
2022/09/14 07:57:00;;;;;;;12.18;2.95;;;;;;;20.06;79.52;95358.66;5069546;28;20040;-79
2022/09/14 07:59:27;;;;;;;11.45;2.97;;;;;;;20.17;79.19;95363.34;5069133;28;20471;-75
2022/09/14 08:01:53;;;;;;;20.88;4.00;;;;;;;20.27;77.83;95360.53;5069881;28;20407;-76
2022/09/14 08:04:20;;;;;;;11.63;2.53;;;;;;;20.41;77.66;95362.41;5071676;28;20423;-74
2022/09/14 08:06:47;;;;;;;14.32;2.90;;;;;;;20.53;76.96;95373.00;5073339;28;20442;-77
2022/09/14 08:09:13;;;;;;;12.88;2.80;;;;;;;20.63;76.62;95373.34;5072995;28;20131;-74
2022/09/14 08:11:41;;;;;;;14.95;3.65;;;;;;;20.73;75.23;95369.72;5072991;28;20123;-79
2022/09/14 08:14:10;;;;;;;16.27;3.45;;;;;;;20.91;74.42;95367.56;5072492;28;20521;-75
2022/09/14 08:16:37;;;;;;;15.07;2.92;;;;;;;21.15;73.23;95370.53;5073113;28;20332;-79
2022/09/14 08:19:06;;;;;;;14.75;3.22;;;;;;;21.20;73.87;95375.63;5072464;28;20044;-78
2022/09/14 08:21:34;;;;;;;13.13;3.17;;;;;;;21.40;73.52;95378.59;5072908;28;20082;-75
2022/09/14 08:24:01;;;;;;;17.75;3.50;;;;;;;21.50;71.28;95392.31;5072700;28;20051;-80
2022/09/14 08:26:28;;;;;;;14.27;3.47;;;;;;;21.62;72.09;95391.81;5072518;28;20044;-80
2022/09/14 08:28:58;;;;;;;13.45;2.40;;;;;;;21.74;71.24;95395.25;5072749;28;20072;-79
2022/09/14 08:31:26;;;;;;;11.77;2.80;;;;;;;21.80;70.43;95388.03;5072593;28;20398;-77
2022/09/14 08:33:55;;;;;;;10.63;3.05;;;;;;;21.86;71.19;95381.63;5072558;28;20045;-77
2022/09/14 08:36:22;;;;;;;14.60;2.80;;;;;;;21.80;70.55;95377.75;5074797;28;20048;-79
2022/09/14 08:38:50;;;;;;;11.13;3.13;;;;;;;21.85;69.54;95368.19;5073182;28;20048;-80
2022/09/14 08:41:28;;;;;;;16.02;3.25;;;;;;;21.89;69.69;95374.47;5073093;28;20051;-79
2022/09/14 08:44:00;;;;;;;11.45;2.63;;;;;;;21.91;70.39;95380.38;5072377;28;20051;-80
2022/09/14 08:46:31;;;;;;;17.42;3.08;;;;;;;22.02;70.10;95377.47;5072913;28;20037;-79
2022/09/14 08:49:00;;;;;;;11.57;2.75;;;;;;;22.01;69.22;95393.31;5073241;28;20052;-80
2022/09/14 08:51:26;;;;;;;14.32;3.25;;;;;;;21.98;70.97;95388.63;5073323;28;20041;-79
2022/09/14 08:53:56;;;;;;;11.98;2.97;;;;;;;22.00;68.56;95380.66;5073369;28;20040;-79
2022/09/14 08:56:26;;;;;;;15.02;2.67;;;;;;;22.21;67.82;95387.16;5072545;28;20049;-78
2022/09/14 08:59:07;;;;;;;11.18;2.50;;;;;;;22.40;67.07;95387.28;5073250;28;20040;-78
2022/09/14 09:01:47;;;;;;;11.60;2.83;;;;;;;22.58;67.63;95387.00;5072700;28;20040;-78
2022/09/14 09:04:31;;;;;;;14.52;3.15;;;;;;;22.76;65.93;95372.06;5072131;28;20052;-76
2022/09/14 09:07:05;;;;;;;13.52;2.95;;;;;;;22.86;65.20;95376.66;5073197;28;20053;-75
2022/09/14 09:09:40;;;;;;;18.60;3.42;;;;;;;23.04;64.92;95371.63;5072408;28;20407;-79
2022/09/14 09:12:14;;;;;;;26.95;5.00;;;;;;;23.23;64.02;95388.75;5071234;28;20126;-77
2022/09/14 09:14:46;;;;;;;10.52;2.35;;;;;;;23.40;64.14;95394.00;5071634;28;20048;-78
2022/09/14 09:17:17;;;;;;;27.88;4.38;;;;;;;23.50;62.52;95403.38;5072435;28;20044;-78
2022/09/14 09:19:55;;;;;;;16.63;2.97;;;;;;;23.71;63.95;95404.22;5073479;28;20040;-78
2022/09/14 09:22:25;;;;;;;15.23;3.20;;;;;;;23.83;63.70;95409.91;5073509;28;20048;-78
2022/09/14 09:24:54;;;;;;;21.92;3.28;;;;;;;23.99;62.33;95403.63;5072640;28;20048;-77
2022/09/14 09:27:22;;;;;;;13.55;2.78;;;;;;;24.10;61.22;95415.31;5054134;28;20056;-78
2022/09/14 09:29:50;;;;;;;11.82;2.47;;;;;;;24.17;61.27;95415.19;5051779;28;20065;-78
2022/09/14 09:32:20;;;;;;;13.55;2.78;;;;;;;24.25;60.28;95420.59;5051183;28;20056;-78
2022/09/14 09:34:47;;;;;;;19.52;3.67;;;;;;;24.40;60.27;95421.88;5051530;28;20052;-75
2022/09/14 09:37:14;;;;;;;21.48;3.20;;;;;;;24.41;59.12;95418.66;5050981;28;20056;-79
2022/09/14 09:39:42;;;;;;;13.02;2.35;;;;;;;24.35;58.55;95419.56;5051767;28;20391;-78
2022/09/14 09:42:15;;;;;;;20.60;3.50;;;;;;;24.41;58.43;95423.44;5051354;28;20060;-79
2022/09/14 09:44:56;;;;;;;;;;;;;;;24.38;58.73;95418.72;5051560;28;20045;-77
2022/09/14 09:47:30;;;;;;;22.05;3.67;;;;;;;24.38;58.89;95424.28;5050606;28;19927;-78
2022/09/14 09:50:00;;;;;;;13.10;2.95;;;;;;;24.29;59.63;95412.94;5051521;28;20058;-77
2022/09/14 09:52:27;;;;;;;17.00;3.20;;;;;;;24.24;58.99;95424.59;5051511;28;20043;-78
2022/09/14 09:54:55;;;;;;;17.05;3.35;;;;;;;24.06;60.69;95408.25;5065207;28;20048;-77
2022/09/14 09:57:27;;;;;;;19.23;3.13;;;;;;;23.94;61.74;95406.91;5070885;28;20048;-77
2022/09/14 10:00:09;;;;;;;15.85;2.95;;;;;;;23.84;61.70;95407.91;5070897;28;20075;-77
2022/09/14 10:02:37;;;;;;;10.43;2.57;;;;;;;23.97;61.75;95411.63;5071446;28;20051;-79
2022/09/14 10:05:06;;;;;;;16.92;3.05;;;;;;;23.81;62.55;95408.78;5070942;28;20314;-77
2022/09/14 10:07:35;;;;;;;15.93;3.03;;;;;;;23.99;62.80;95409.19;5071250;28;20060;-76
2022/09/14 10:10:05;;;;;;;15.55;2.97;;;;;;;24.07;61.90;95407.84;5070702;28;20063;-78
2022/09/14 10:12:32;;;;;;;31.15;4.70;;;;;;;24.09;60.71;95401.84;5070785;28;20098;-75
2022/09/14 10:15:16;;;;;;;21.20;3.42;;;;;;;24.06;63.49;95406.25;5070651;28;20048;-79
2022/09/14 10:18:08;;;;;;;13.93;2.72;;;;;;;24.25;59.65;95401.91;5071400;28;20032;-77
2022/09/14 10:20:37;;;;;;;15.93;2.78;;;;;;;24.17;60.62;95392.94;5070813;28;20483;-76
2022/09/14 10:23:22;;;;;;;22.35;3.58;;;;;;;24.31;59.17;95380.69;5070211;28;20036;-77
2022/09/14 10:25:51;;;;;;;12.15;2.53;;;;;;;24.16;59.76;95379.44;5055533;28;20128;-77
2022/09/14 10:28:21;;;;;;;16.35;2.88;;;;;;;24.20;59.29;95380.94;5070554;28;20056;-77
2022/09/14 10:30:54;;;;;;;12.60;2.42;;;;;;;24.14;59.06;95371.53;5071020;28;20049;-78
2022/09/14 10:33:22;;;;;;;11.23;2.40;;;;;;;24.20;57.63;95369.03;5070505;28;20071;-78
2022/09/14 10:35:54;;;;;;;18.05;3.22;;;;;;;24.23;58.53;95368.16;5070671;28;20113;-75
2022/09/14 10:38:32;;;;;;;20.60;3.13;;;;;;;24.28;57.83;95366.88;5070100;28;20044;-76
2022/09/14 10:41:15;;;;;;;14.20;2.95;;;;;;;24.23;57.67;95362.59;5066315;28;20052;-76
2022/09/14 10:44:18;;;;;;;19.50;3.25;;;;;;;24.40;57.90;95360.66;5062324;28;20094;-77
2022/09/14 10:46:54;;;;;;;19.75;3.22;;;;;;;24.56;59.75;95352.34;5069831;28;20036;-78
2022/09/14 10:49:36;;;;;;;13.73;3.00;;;;;;;24.62;58.49;95356.16;5069917;28;20048;-77
2022/09/14 10:52:13;;;;;;;13.45;2.65;;;;;;;24.76;57.96;95346.69;5069934;28;20040;-78
2022/09/14 10:54:57;;;;;;;15.05;3.10;;;;;;;24.99;57.63;95338.16;5069625;28;20075;-79
2022/09/14 10:57:40;;;;;;;16.67;3.17;;;;;;;24.86;57.80;95334.50;5069529;28;20044;-77
2022/09/14 11:00:12;;;;;;;18.52;3.17;;;;;;;24.79;56.89;95337.47;5069580;28;20075;-75
2022/09/14 11:03:07;;;;;;;17.52;2.90;;;;;;;24.89;58.92;95330.84;5069980;28;20136;-75
2022/09/14 11:05:37;;;;;;;15.75;2.83;;;;;;;24.73;57.98;95328.84;5070085;28;20056;-76
2022/09/14 11:08:12;;;;;;;19.25;2.92;;;;;;;24.89;58.40;95335.63;5069205;28;20041;-76
2022/09/14 11:10:50;;;;;;;15.13;2.97;;;;;;;24.98;58.73;95322.66;5069854;28;20048;-75
2022/09/14 11:13:37;;;;;;;15.80;2.80;;;;;;;24.74;58.41;95312.94;5069674;28;20055;-80
2022/09/14 11:16:14;;;;;;;25.98;4.10;;;;;;;24.69;59.09;95317.03;5068797;28;20048;-79
2022/09/14 11:18:50;;;;;;;20.15;3.30;;;;;;;24.82;58.09;95310.75;5070019;28;20055;-79
2022/09/14 11:21:26;;;;;;;19.17;3.13;;;;;;;24.65;58.96;95299.63;5069126;28;20048;-78
2022/09/14 11:23:57;;;;;;;21.13;3.40;;;;;;;24.73;58.43;95300.22;5067886;28;20415;-77
2022/09/14 11:26:30;;;;;;;22.00;3.53;;;;;;;24.97;59.12;95292.47;5068816;28;20045;-76
2022/09/14 11:29:00;;;;;;;;;;;;;;;25.10;59.46;95282.19;5069470;28;20342;-75
2022/09/14 11:31:31;;;;;;;19.15;2.97;;;;;;;25.38;56.58;95282.66;5069447;28;19920;-78
2022/09/14 11:34:06;;;;;;;18.58;2.60;;;;;;;25.21;56.01;95285.50;5059277;28;20053;-76
2022/09/14 11:36:38;;;;;;;20.35;3.20;;;;;;;25.42;57.98;95286.09;5052442;28;20045;-77
2022/09/14 11:39:12;;;;;;;17.98;3.28;;;;;;;25.58;55.90;95283.28;5071741;28;20499;-76